createdAt,value
2023-02-26T00:00:38.138Z,11.20
2023-02-26T00:03:04.681Z,11.10
2023-02-26T00:05:31.148Z,11.10
2023-02-26T00:07:57.643Z,11.10
2023-02-26T00:10:24.118Z,11.20
2023-02-26T00:12:50.598Z,11.10
2023-02-26T00:15:17.122Z,11.00
2023-02-26T00:17:43.649Z,11.00
2023-02-26T00:20:10.134Z,11.00
2023-02-26T00:22:36.631Z,11.10
2023-02-26T00:25:03.127Z,11.00
2023-02-26T00:27:29.608Z,11.00
2023-02-26T00:29:56.072Z,11.00
2023-02-26T00:32:22.712Z,11.00
2023-02-26T00:34:49.219Z,11.00
2023-02-26T00:37:15.714Z,11.10
2023-02-26T00:39:42.261Z,11.00
2023-02-26T00:42:08.781Z,11.10
2023-02-26T00:44:35.263Z,11.00
2023-02-26T00:47:01.758Z,11.00
2023-02-26T00:49:28.297Z,11.00
2023-02-26T00:51:54.754Z,11.00
2023-02-26T00:54:21.267Z,11.00
2023-02-26T00:56:47.744Z,11.00
2023-02-26T00:59:14.248Z,11.00
2023-02-26T01:01:40.770Z,11.00
2023-02-26T01:04:08.301Z,10.90
2023-02-26T01:06:34.838Z,10.90
2023-02-26T01:09:01.342Z,11.00
2023-02-26T01:11:27.832Z,11.00
2023-02-26T01:13:54.333Z,10.80
2023-02-26T01:16:20.811Z,10.80
2023-02-26T01:18:47.528Z,11.00
2023-02-26T01:21:14.033Z,10.90
2023-02-26T01:23:40.565Z,10.90
2023-02-26T01:26:07.030Z,10.90
2023-02-26T01:28:33.538Z,10.80
2023-02-26T01:31:00.106Z,10.90
2023-02-26T01:33:26.730Z,10.90
2023-02-26T01:35:53.273Z,10.80
2023-02-26T01:38:19.871Z,10.90
2023-02-26T01:40:46.402Z,10.80
2023-02-26T01:43:12.935Z,10.90
2023-02-26T01:45:39.423Z,10.90
2023-02-26T01:48:05.897Z,10.90
2023-02-26T01:50:38.292Z,10.90
2023-02-26T01:53:04.784Z,11.00
2023-02-26T01:55:31.292Z,10.80
2023-02-26T01:57:57.778Z,10.90
2023-02-26T02:00:26.326Z,10.90
2023-02-26T02:02:52.924Z,11.00
2023-02-26T02:05:19.527Z,10.90
2023-02-26T02:07:45.995Z,11.00
2023-02-26T02:10:12.489Z,10.90
2023-02-26T02:12:38.957Z,10.80
2023-02-26T02:15:05.516Z,10.90
2023-02-26T02:17:32.021Z,10.90
2023-02-26T02:19:58.577Z,11.00
2023-02-26T02:22:25.047Z,10.90
2023-02-26T02:24:51.541Z,10.90
2023-02-26T02:27:18.046Z,10.90
2023-02-26T02:29:44.553Z,11.00
2023-02-26T02:32:11.171Z,10.90
2023-02-26T02:34:37.789Z,11.00
2023-02-26T02:37:04.249Z,10.90
2023-02-26T02:39:30.736Z,10.90
2023-02-26T02:41:57.208Z,11.00
2023-02-26T02:44:23.741Z,10.90
2023-02-26T02:46:50.260Z,10.90
2023-02-26T02:49:16.783Z,10.90
2023-02-26T02:51:43.268Z,10.80
2023-02-26T02:54:09.751Z,10.90
2023-02-26T02:56:36.234Z,10.90
2023-02-26T02:59:02.726Z,10.90
2023-02-26T03:01:32.369Z,10.90
2023-02-26T03:03:58.841Z,11.00
2023-02-26T03:06:25.322Z,11.00
2023-02-26T03:08:51.801Z,10.90
2023-02-26T03:11:18.280Z,11.00
2023-02-26T03:13:44.759Z,11.00
2023-02-26T03:16:11.325Z,10.90
2023-02-26T03:18:37.874Z,10.90
2023-02-26T03:21:04.371Z,10.90
2023-02-26T03:23:32.335Z,10.90
2023-02-26T03:25:58.832Z,10.80
2023-02-26T03:28:25.323Z,10.90
2023-02-26T03:30:51.822Z,10.90
2023-02-26T03:33:18.342Z,11.00
2023-02-26T03:35:44.844Z,10.90
2023-02-26T03:38:11.326Z,10.90
2023-02-26T03:40:37.846Z,10.80
2023-02-26T03:43:04.319Z,10.90
2023-02-26T03:45:30.822Z,11.00
2023-02-26T03:47:57.304Z,10.90
2023-02-26T03:50:23.833Z,11.00
2023-02-26T03:52:50.322Z,11.00
2023-02-26T03:55:16.816Z,11.00
2023-02-26T03:57:43.292Z,10.90
2023-02-26T04:00:09.796Z,10.90
2023-02-26T04:02:36.305Z,10.80
2023-02-26T04:05:02.804Z,10.90
2023-02-26T04:07:29.275Z,11.00
2023-02-26T04:09:56.383Z,11.00
2023-02-26T04:12:22.841Z,11.00
2023-02-26T04:14:49.333Z,10.90
2023-02-26T04:17:16.975Z,10.90
2023-02-26T04:19:44.354Z,10.90
2023-02-26T04:22:10.832Z,10.90
2023-02-26T04:24:37.319Z,10.80
2023-02-26T04:27:03.882Z,10.80
2023-02-26T04:29:30.371Z,10.80
2023-02-26T04:32:02.700Z,10.90
2023-02-26T04:34:29.310Z,11.00
2023-02-26T04:36:55.783Z,10.90
2023-02-26T04:39:22.268Z,10.70
2023-02-26T04:41:48.735Z,10.90
2023-02-26T04:44:15.219Z,10.80
2023-02-26T04:46:41.804Z,10.80
2023-02-26T04:49:08.335Z,10.80
2023-02-26T04:51:34.814Z,10.80
2023-02-26T04:54:01.299Z,10.80
2023-02-26T04:56:28.001Z,10.70
2023-02-26T04:58:54.672Z,10.80
2023-02-26T05:01:21.166Z,10.70
2023-02-26T05:03:47.679Z,10.80
2023-02-26T05:06:14.160Z,10.80
2023-02-26T05:08:40.636Z,10.80
2023-02-26T05:11:07.126Z,10.80
2023-02-26T05:13:33.593Z,10.60
2023-02-26T05:16:00.180Z,10.80
2023-02-26T05:18:26.710Z,10.70
2023-02-26T05:20:53.188Z,10.80
2023-02-26T05:23:19.674Z,10.70
2023-02-26T05:25:46.148Z,10.70
2023-02-26T05:28:12.620Z,10.60
2023-02-26T05:30:39.152Z,10.70
2023-02-26T05:33:05.663Z,10.70
2023-02-26T05:35:32.140Z,10.70
2023-02-26T05:37:58.656Z,10.80
2023-02-26T05:40:25.138Z,10.70
2023-02-26T05:42:51.646Z,10.70
2023-02-26T05:45:18.128Z,10.70
2023-02-26T05:47:44.634Z,10.80
2023-02-26T05:50:11.098Z,10.70
2023-02-26T05:52:37.598Z,10.60
2023-02-26T05:55:04.083Z,10.50
2023-02-26T05:57:30.611Z,10.70
2023-02-26T05:59:57.072Z,10.50
2023-02-26T06:02:23.559Z,10.70
2023-02-26T06:04:50.036Z,10.70
2023-02-26T06:07:16.531Z,10.80
2023-02-26T06:09:43.000Z,10.70
2023-02-26T06:12:09.494Z,10.70
2023-02-26T06:14:36.003Z,10.60
2023-02-26T06:17:02.526Z,10.70
2023-02-26T06:19:29.005Z,10.80
2023-02-26T06:21:55.471Z,10.70
2023-02-26T06:24:21.949Z,10.70
2023-02-26T06:26:48.432Z,10.60
2023-02-26T06:29:14.918Z,10.60
2023-02-26T06:31:41.577Z,10.60
2023-02-26T06:34:08.552Z,10.70
2023-02-26T06:36:35.030Z,10.50
2023-02-26T06:39:01.577Z,10.60
2023-02-26T06:41:28.220Z,10.60
2023-02-26T06:43:54.714Z,10.70
2023-02-26T06:46:21.247Z,10.60
2023-02-26T06:48:47.788Z,10.60
2023-02-26T06:51:14.255Z,10.70
2023-02-26T06:53:40.777Z,10.80
2023-02-26T06:56:07.256Z,10.90
2023-02-26T06:58:33.753Z,11.00
2023-02-26T07:01:00.266Z,11.00
2023-02-26T07:03:26.791Z,11.10
2023-02-26T07:05:53.277Z,11.20
2023-02-26T07:08:19.759Z,11.30
2023-02-26T07:10:46.237Z,11.30
2023-02-26T07:13:14.557Z,11.40
2023-02-26T07:15:41.040Z,11.50
2023-02-26T07:18:07.534Z,11.60
2023-02-26T07:20:34.028Z,11.70
2023-02-26T07:23:00.513Z,11.80
2023-02-26T07:25:26.996Z,11.90
2023-02-26T07:27:53.474Z,11.90
2023-02-26T07:30:19.939Z,12.10
2023-02-26T07:32:46.413Z,12.10
2023-02-26T07:35:12.905Z,12.10
2023-02-26T07:37:39.390Z,12.30
2023-02-26T07:40:05.877Z,12.40
2023-02-26T07:42:32.357Z,12.40
2023-02-26T07:44:58.838Z,12.50
2023-02-26T07:47:25.340Z,12.50
2023-02-26T07:49:51.843Z,12.70
2023-02-26T07:52:18.345Z,12.60
2023-02-26T07:54:44.835Z,12.70
2023-02-26T07:57:11.298Z,12.80
2023-02-26T07:59:37.766Z,12.80
2023-02-26T08:02:04.242Z,12.70
2023-02-26T08:04:30.763Z,12.90
2023-02-26T08:06:57.300Z,13.00
2023-02-26T08:09:23.848Z,13.10
2023-02-26T08:11:50.312Z,13.00
2023-02-26T08:14:16.804Z,12.90
2023-02-26T08:16:43.270Z,13.10
2023-02-26T08:19:09.783Z,13.20
2023-02-26T08:21:36.287Z,13.20
2023-02-26T08:24:02.799Z,13.20
2023-02-26T08:26:29.278Z,13.10
2023-02-26T08:28:55.762Z,13.10
2023-02-26T08:31:22.344Z,13.10
2023-02-26T08:33:48.884Z,13.40
2023-02-26T08:36:15.387Z,13.30
2023-02-26T08:38:41.843Z,13.40
2023-02-26T08:41:08.353Z,13.30
2023-02-26T08:43:34.831Z,13.40
2023-02-26T08:46:01.323Z,13.40
2023-02-26T08:48:27.817Z,13.50
2023-02-26T08:50:54.289Z,13.50
2023-02-26T08:53:20.751Z,13.60
2023-02-26T08:55:47.240Z,13.50
2023-02-26T08:58:13.728Z,13.50
2023-02-26T09:00:40.238Z,13.50
2023-02-26T09:03:06.819Z,13.60
2023-02-26T09:05:33.390Z,13.60
2023-02-26T09:08:00.114Z,13.70
2023-02-26T09:10:26.668Z,13.70
2023-02-26T09:12:53.155Z,13.80
2023-02-26T09:15:19.659Z,13.90
2023-02-26T09:17:46.137Z,13.80
2023-02-26T09:20:12.657Z,13.80
2023-02-26T09:22:39.154Z,13.70
2023-02-26T09:25:05.632Z,13.70
2023-02-26T09:27:32.109Z,13.70
2023-02-26T09:29:58.580Z,13.70
2023-02-26T09:32:25.134Z,13.70
2023-02-26T09:34:51.650Z,13.60
2023-02-26T09:37:18.132Z,13.60
2023-02-26T09:39:44.620Z,13.60
2023-02-26T09:42:11.109Z,13.60
2023-02-26T09:44:37.589Z,13.60
2023-02-26T09:47:08.686Z,13.60
2023-02-26T09:49:35.168Z,13.60
2023-02-26T09:52:01.679Z,13.60
2023-02-26T09:54:28.175Z,13.50
2023-02-26T09:56:54.668Z,13.50
2023-02-26T09:59:21.284Z,13.50
2023-02-26T10:01:47.812Z,13.50
2023-02-26T10:04:14.369Z,13.50
2023-02-26T10:06:40.890Z,13.50
2023-02-26T10:09:07.364Z,13.40
2023-02-26T10:11:33.881Z,13.40
2023-02-26T10:14:00.353Z,13.40
2023-02-26T10:16:27.162Z,13.40
2023-02-26T10:18:53.908Z,13.40
2023-02-26T10:21:20.399Z,13.40
2023-02-26T10:23:46.861Z,13.30
2023-02-26T10:26:13.388Z,13.30
2023-02-26T10:28:39.858Z,13.30
2023-02-26T10:31:06.425Z,13.30
2023-02-26T10:33:32.934Z,13.30
2023-02-26T10:35:59.462Z,13.30
2023-02-26T10:38:25.918Z,13.30
2023-02-26T10:40:52.429Z,13.30
2023-02-26T10:43:18.901Z,13.30
2023-02-26T10:45:45.449Z,13.20
2023-02-26T10:48:11.928Z,13.30
2023-02-26T10:50:38.406Z,13.20
2023-02-26T10:53:04.889Z,13.20
2023-02-26T10:55:31.402Z,13.20
2023-02-26T10:57:57.983Z,13.20
2023-02-26T11:00:24.501Z,13.20
2023-02-26T11:02:50.981Z,13.20
2023-02-26T11:05:17.460Z,13.10
2023-02-26T11:07:43.945Z,13.10
2023-02-26T11:10:10.430Z,13.10
2023-02-26T11:12:36.917Z,13.10
2023-02-26T11:15:03.402Z,13.10
2023-02-26T11:17:29.902Z,13.10
2023-02-26T11:19:56.399Z,13.10
2023-02-26T11:22:22.890Z,13.00
2023-02-26T11:24:49.377Z,13.00
2023-02-26T11:27:15.866Z,13.00
2023-02-26T11:29:42.345Z,13.00
2023-02-26T11:32:08.918Z,13.00
2023-02-26T11:34:35.415Z,12.90
2023-02-26T11:37:01.891Z,12.90
2023-02-26T11:39:28.357Z,12.90
2023-02-26T11:41:54.870Z,12.90
2023-02-26T11:44:21.357Z,12.90
2023-02-26T11:46:47.863Z,12.90
2023-02-26T11:49:14.328Z,12.90
2023-02-26T11:51:40.828Z,12.90
2023-02-26T11:54:07.304Z,12.90
2023-02-26T11:56:33.822Z,12.80
2023-02-26T11:59:00.330Z,12.80
2023-02-26T12:01:27.160Z,12.80
2023-02-26T12:03:56.801Z,12.80
2023-02-26T12:06:23.286Z,13.00
2023-02-26T12:08:49.778Z,12.80
2023-02-26T12:11:16.264Z,12.80
2023-02-26T12:13:42.747Z,12.70
2023-02-26T12:16:09.279Z,12.70
2023-02-26T12:18:35.784Z,12.70
2023-02-26T12:21:02.274Z,12.70
2023-02-26T12:23:28.758Z,12.70
2023-02-26T12:25:55.263Z,12.60
2023-02-26T12:28:21.749Z,12.70
2023-02-26T12:30:48.272Z,12.70
2023-02-26T12:33:14.730Z,12.70
2023-02-26T12:35:41.224Z,12.70
2023-02-26T12:38:07.705Z,12.70
2023-02-26T12:40:34.198Z,12.70
2023-02-26T12:43:00.668Z,12.70
2023-02-26T12:45:27.145Z,12.60
2023-02-26T12:47:53.639Z,12.60
2023-02-26T12:50:20.135Z,12.60
2023-02-26T12:52:46.630Z,12.60
2023-02-26T12:55:13.115Z,12.60
2023-02-26T12:57:39.614Z,12.40
2023-02-26T13:00:06.142Z,12.50
2023-02-26T13:02:32.659Z,12.30
2023-02-26T13:04:59.146Z,12.40
2023-02-26T13:07:25.639Z,12.30
2023-02-26T13:09:52.124Z,12.30
2023-02-26T13:12:18.600Z,12.60
2023-02-26T13:14:45.093Z,12.80
2023-02-26T13:17:11.578Z,12.80
2023-02-26T13:19:38.067Z,12.80
2023-02-26T13:22:04.550Z,12.90
2023-02-26T13:24:31.038Z,12.90
2023-02-26T13:26:57.537Z,12.80
2023-02-26T13:29:24.009Z,12.90
2023-02-26T13:31:50.584Z,12.90
2023-02-26T13:34:17.143Z,12.90
2023-02-26T13:36:43.646Z,12.90
2023-02-26T13:39:10.133Z,12.80
2023-02-26T13:41:37.790Z,12.90
2023-02-26T13:44:06.161Z,12.90
2023-02-26T13:46:32.674Z,12.80
2023-02-26T13:48:59.157Z,12.80
2023-02-26T13:51:25.933Z,12.80
2023-02-26T13:53:52.631Z,12.80
2023-02-26T13:56:19.114Z,12.80
2023-02-26T13:58:45.593Z,12.70
2023-02-26T14:01:12.203Z,12.80
2023-02-26T14:03:38.720Z,12.80
2023-02-26T14:06:05.240Z,12.70
2023-02-26T14:08:31.736Z,12.70
2023-02-26T14:10:58.219Z,12.80
2023-02-26T14:13:24.716Z,12.70
2023-02-26T14:15:51.220Z,12.70
2023-02-26T14:18:20.919Z,12.70
2023-02-26T14:20:47.403Z,12.70
2023-02-26T14:23:13.890Z,12.70
2023-02-26T14:25:40.396Z,12.70
2023-02-26T14:28:06.877Z,12.60
2023-02-26T14:30:33.482Z,12.70
2023-02-26T14:33:00.032Z,12.70
2023-02-26T14:35:26.499Z,12.70
2023-02-26T14:37:53.009Z,12.70
2023-02-26T14:40:19.469Z,12.70
2023-02-26T14:42:45.948Z,12.70
2023-02-26T14:45:12.417Z,12.60
2023-02-26T14:47:38.909Z,12.60
2023-02-26T14:50:05.359Z,12.60
2023-02-26T14:52:31.853Z,12.60
2023-02-26T14:54:58.331Z,12.60
2023-02-26T14:57:24.855Z,12.70
2023-02-26T14:59:51.344Z,12.70
2023-02-26T15:02:17.942Z,12.70
2023-02-26T15:04:44.491Z,12.60
2023-02-26T15:07:10.960Z,12.60
2023-02-26T15:09:37.454Z,12.60
2023-02-26T15:12:03.956Z,12.60
2023-02-26T15:14:30.468Z,12.60
2023-02-26T15:16:56.957Z,12.60
2023-02-26T15:19:23.454Z,12.70
2023-02-26T15:21:49.932Z,12.70
2023-02-26T15:24:16.441Z,12.70
2023-02-26T15:26:42.915Z,12.60
2023-02-26T15:29:14.977Z,12.60
2023-02-26T15:31:41.564Z,12.60
2023-02-26T15:34:08.219Z,12.60
2023-02-26T15:36:34.712Z,12.60
2023-02-26T15:39:01.226Z,12.70
2023-02-26T15:41:27.774Z,12.70
2023-02-26T15:43:54.262Z,12.70
2023-02-26T15:46:20.770Z,12.70
2023-02-26T15:48:47.264Z,12.70
2023-02-26T15:51:13.746Z,12.70
2023-02-26T15:53:40.245Z,12.70
2023-02-26T15:56:06.717Z,12.70
2023-02-26T15:58:33.199Z,12.60
2023-02-26T16:00:59.683Z,12.60
2023-02-26T16:03:26.235Z,12.60
2023-02-26T16:05:57.198Z,12.70
2023-02-26T16:08:27.126Z,12.70
2023-02-26T16:10:53.678Z,12.70
2023-02-26T16:13:20.178Z,12.60
2023-02-26T16:15:51.076Z,12.40
2023-02-26T16:18:17.590Z,12.60
2023-02-26T16:20:44.084Z,12.70
2023-02-26T16:23:10.561Z,12.60
2023-02-26T16:25:37.094Z,12.70
2023-02-26T16:28:03.669Z,12.70
2023-02-26T16:30:30.166Z,12.70
2023-02-26T16:32:56.732Z,12.70
2023-02-26T16:35:23.273Z,12.60
2023-02-26T16:37:49.764Z,12.70
2023-02-26T16:40:16.252Z,12.70
2023-02-26T16:42:42.723Z,12.70
2023-02-26T16:45:09.218Z,12.70
2023-02-26T16:47:35.671Z,12.70
2023-02-26T16:50:02.204Z,12.70
2023-02-26T16:52:28.703Z,12.60
2023-02-26T16:54:55.187Z,12.60
2023-02-26T16:57:21.672Z,12.60
2023-02-26T16:59:48.184Z,12.60
2023-02-26T17:02:14.669Z,12.60
2023-02-26T17:04:41.178Z,12.60
2023-02-26T17:07:07.636Z,12.60
2023-02-26T17:09:34.147Z,12.60
2023-02-26T17:12:00.614Z,12.50
2023-02-26T17:14:27.117Z,12.50
2023-02-26T17:16:53.602Z,12.50
2023-02-26T17:19:20.128Z,12.50
2023-02-26T17:21:46.638Z,12.60
2023-02-26T17:24:13.137Z,12.50
2023-02-26T17:26:45.044Z,12.50
2023-02-26T17:29:11.508Z,12.60
2023-02-26T17:31:38.035Z,12.60
2023-02-26T17:34:04.555Z,12.50
2023-02-26T17:36:31.046Z,12.50
2023-02-26T17:38:57.525Z,12.50
2023-02-26T17:41:24.150Z,12.50
2023-02-26T17:43:50.837Z,12.50
2023-02-26T17:46:17.319Z,12.50
2023-02-26T17:48:43.781Z,12.50
2023-02-26T17:51:10.264Z,12.50
2023-02-26T17:53:36.740Z,12.50
2023-02-26T17:56:03.241Z,12.50
2023-02-26T17:58:29.724Z,12.40
2023-02-26T18:00:56.251Z,12.50
2023-02-26T18:03:22.737Z,12.40
2023-02-26T18:05:49.235Z,12.40
2023-02-26T18:08:15.708Z,12.40
2023-02-26T18:10:42.306Z,12.40
2023-02-26T18:13:08.798Z,12.40
2023-02-26T18:15:35.302Z,12.40
2023-02-26T18:18:01.796Z,12.40
2023-02-26T18:20:28.307Z,12.40
2023-02-26T18:22:57.072Z,12.40
2023-02-26T18:25:23.575Z,12.40
2023-02-26T18:27:50.057Z,12.40
2023-02-26T18:30:21.135Z,12.30
2023-02-26T18:32:47.649Z,12.40
2023-02-26T18:35:14.169Z,12.40
2023-02-26T18:37:40.655Z,12.30
2023-02-26T18:40:07.158Z,12.40
2023-02-26T18:42:33.650Z,12.40
2023-02-26T18:45:00.127Z,12.30
2023-02-26T18:47:26.605Z,12.40
2023-02-26T18:49:53.086Z,12.30
2023-02-26T18:52:19.575Z,12.30
2023-02-26T18:54:46.060Z,12.30
2023-02-26T18:57:13.693Z,12.30
2023-02-26T18:59:40.167Z,12.30
2023-02-26T19:02:06.849Z,12.30
2023-02-26T19:04:33.338Z,12.30
2023-02-26T19:07:03.155Z,12.30
2023-02-26T19:09:29.636Z,12.20
2023-02-26T19:11:56.132Z,12.20
2023-02-26T19:14:22.624Z,12.20
2023-02-26T19:16:49.109Z,12.30
2023-02-26T19:19:15.575Z,12.20
2023-02-26T19:21:42.068Z,12.20
2023-02-26T19:24:08.532Z,12.20
2023-02-26T19:26:35.026Z,12.20
2023-02-26T19:29:01.488Z,12.10
2023-02-26T19:31:28.466Z,12.10
2023-02-26T19:33:55.232Z,12.10
2023-02-26T19:36:21.743Z,12.00
2023-02-26T19:38:48.239Z,12.00
2023-02-26T19:41:14.748Z,12.00
2023-02-26T19:43:41.231Z,12.00
2023-02-26T19:46:07.785Z,12.00
2023-02-26T19:48:34.286Z,12.10
2023-02-26T19:51:00.796Z,12.10
2023-02-26T19:53:27.279Z,12.00
2023-02-26T19:55:53.773Z,12.10
2023-02-26T19:58:20.262Z,12.00
2023-02-26T20:00:46.784Z,12.00
2023-02-26T20:03:13.255Z,11.80
2023-02-26T20:05:39.718Z,12.00
2023-02-26T20:08:06.254Z,12.00
2023-02-26T20:10:32.721Z,12.00
2023-02-26T20:13:03.211Z,12.00
2023-02-26T20:15:29.705Z,11.90
2023-02-26T20:17:56.196Z,11.90
2023-02-26T20:20:22.674Z,11.90
2023-02-26T20:22:51.216Z,11.90
2023-02-26T20:25:17.706Z,11.90
2023-02-26T20:27:44.195Z,12.00
2023-02-26T20:30:10.706Z,11.90
2023-02-26T20:32:37.373Z,11.90
2023-02-26T20:35:03.984Z,12.00
2023-02-26T20:37:30.457Z,12.00
2023-02-26T20:39:56.912Z,12.00
2023-02-26T20:42:23.393Z,11.80
2023-02-26T20:44:49.856Z,11.80
2023-02-26T20:47:16.345Z,11.90
2023-02-26T20:49:42.815Z,11.90
2023-02-26T20:52:09.317Z,11.90
2023-02-26T20:54:35.791Z,11.90
2023-02-26T20:57:02.304Z,11.80
2023-02-26T20:59:28.790Z,11.80
2023-02-26T21:01:55.261Z,11.80
2023-02-26T21:04:21.748Z,11.80
2023-02-26T21:06:48.226Z,12.00
2023-02-26T21:09:14.728Z,11.80
2023-02-26T21:11:41.221Z,11.80
2023-02-26T21:14:07.736Z,11.70
2023-02-26T21:16:34.240Z,11.80
2023-02-26T21:19:00.741Z,11.70
2023-02-26T21:21:27.225Z,11.70
2023-02-26T21:23:53.720Z,11.80
2023-02-26T21:26:20.218Z,11.80
2023-02-26T21:28:46.716Z,11.80
2023-02-26T21:31:13.218Z,11.80
2023-02-26T21:33:39.739Z,11.70
2023-02-26T21:36:06.202Z,11.80
2023-02-26T21:38:32.697Z,11.60
2023-02-26T21:40:59.170Z,11.60
2023-02-26T21:43:25.662Z,11.70
2023-02-26T21:45:52.158Z,11.70
2023-02-26T21:48:18.692Z,11.70
2023-02-26T21:50:45.192Z,11.80
2023-02-26T21:53:11.691Z,11.70
2023-02-26T21:55:38.160Z,11.70
2023-02-26T21:58:04.629Z,11.60
2023-02-26T22:00:31.092Z,11.60
2023-02-26T22:02:57.637Z,11.70
2023-02-26T22:05:27.285Z,11.60
2023-02-26T22:07:53.748Z,11.60
2023-02-26T22:10:20.236Z,11.60
2023-02-26T22:12:46.733Z,11.60
2023-02-26T22:15:13.203Z,11.70
2023-02-26T22:17:39.663Z,11.70
2023-02-26T22:20:06.143Z,11.50
2023-02-26T22:22:32.609Z,11.50
2023-02-26T22:24:59.089Z,11.50
2023-02-26T22:27:25.562Z,11.60
2023-02-26T22:29:52.048Z,11.60
2023-02-26T22:32:18.510Z,11.50
2023-02-26T22:34:46.160Z,11.50
2023-02-26T22:37:12.686Z,11.50
2023-02-26T22:39:39.163Z,11.40
2023-02-26T22:42:09.457Z,11.60
2023-02-26T22:44:35.932Z,11.50
2023-02-26T22:47:02.398Z,11.40
2023-02-26T22:49:28.841Z,11.50
2023-02-26T22:51:55.330Z,11.50
2023-02-26T22:54:21.805Z,11.50
2023-02-26T22:56:48.320Z,11.50
2023-02-26T22:59:14.810Z,11.50
2023-02-26T23:01:41.674Z,11.50
2023-02-26T23:04:08.464Z,11.50
2023-02-26T23:06:34.951Z,11.50
2023-02-26T23:09:01.444Z,11.60
2023-02-26T23:11:28.224Z,11.50
2023-02-26T23:13:54.958Z,11.50
2023-02-26T23:16:21.434Z,11.50
2023-02-26T23:18:47.955Z,11.40
2023-02-26T23:21:14.446Z,11.40
2023-02-26T23:23:40.931Z,11.40
2023-02-26T23:26:07.412Z,11.40
2023-02-26T23:28:33.884Z,11.30
2023-02-26T23:31:00.460Z,11.30
2023-02-26T23:33:27.048Z,11.40
2023-02-26T23:35:53.531Z,11.40
2023-02-26T23:38:20.228Z,11.40
2023-02-26T23:40:46.749Z,11.40
2023-02-26T23:43:13.230Z,11.30
2023-02-26T23:45:39.740Z,11.40
2023-02-26T23:48:06.221Z,11.30
2023-02-26T23:50:32.708Z,11.40
2023-02-26T23:52:59.153Z,11.30
2023-02-26T23:55:25.662Z,11.30
2023-02-26T23:57:52.133Z,11.40
